sensor_id;sensor_type;location;lat;lon;timestamp;pressure;altitude;pressure_sealevel;temperature
4421;BMP180;11824;51.178;13.546;2023-07-22T00:02:02;99938.00;;;15.40
4421;BMP180;11824;51.178;13.546;2023-07-22T00:04:29;99931.00;;;15.40
4421;BMP180;11824;51.178;13.546;2023-07-22T00:06:56;99926.00;;;15.50
4421;BMP180;11824;51.178;13.546;2023-07-22T00:09:24;99931.00;;;15.50
4421;BMP180;11824;51.178;13.546;2023-07-22T00:11:51;99922.00;;;15.50
4421;BMP180;11824;51.178;13.546;2023-07-22T00:14:19;99925.00;;;15.50
4421;BMP180;11824;51.178;13.546;2023-07-22T00:16:46;99930.00;;;15.60
4421;BMP180;11824;51.178;13.546;2023-07-22T00:19:14;99935.00;;;15.60
4421;BMP180;11824;51.178;13.546;2023-07-22T00:21:41;99930.00;;;15.60
4421;BMP180;11824;51.178;13.546;2023-07-22T00:24:09;99935.00;;;15.60
4421;BMP180;11824;51.178;13.546;2023-07-22T00:26:37;99937.00;;;15.60
4421;BMP180;11824;51.178;13.546;2023-07-22T00:29:04;99934.00;;;15.60
4421;BMP180;11824;51.178;13.546;2023-07-22T00:31:32;99939.00;;;15.60
4421;BMP180;11824;51.178;13.546;2023-07-22T00:34:00;99930.00;;;15.60
4421;BMP180;11824;51.178;13.546;2023-07-22T00:36:28;99931.00;;;15.60
4421;BMP180;11824;51.178;13.546;2023-07-22T00:38:56;99941.00;;;15.60
4421;BMP180;11824;51.178;13.546;2023-07-22T00:41:24;99936.00;;;15.60
4421;BMP180;11824;51.178;13.546;2023-07-22T00:43:51;99926.00;;;15.50
4421;BMP180;11824;51.178;13.546;2023-07-22T00:46:18;99928.00;;;15.50
4421;BMP180;11824;51.178;13.546;2023-07-22T00:48:46;99937.00;;;15.50
4421;BMP180;11824;51.178;13.546;2023-07-22T00:51:14;99942.00;;;15.50
4421;BMP180;11824;51.178;13.546;2023-07-22T00:53:43;99944.00;;;15.50
4421;BMP180;11824;51.178;13.546;2023-07-22T00:56:10;99935.00;;;15.50
4421;BMP180;11824;51.178;13.546;2023-07-22T00:58:37;99936.00;;;15.50
4421;BMP180;11824;51.178;13.546;2023-07-22T01:01:05;99943.00;;;15.50
4421;BMP180;11824;51.178;13.546;2023-07-22T01:03:32;99936.00;;;15.50
4421;BMP180;11824;51.178;13.546;2023-07-22T01:06:00;99942.00;;;15.50
4421;BMP180;11824;51.178;13.546;2023-07-22T01:08:27;99941.00;;;15.50
4421;BMP180;11824;51.178;13.546;2023-07-22T01:10:56;99947.00;;;15.50
4421;BMP180;11824;51.178;13.546;2023-07-22T01:13:23;99943.00;;;15.50
4421;BMP180;11824;51.178;13.546;2023-07-22T01:15:51;99949.00;;;15.50
4421;BMP180;11824;51.178;13.546;2023-07-22T01:18:18;99947.00;;;15.60
4421;BMP180;11824;51.178;13.546;2023-07-22T01:20:46;99950.00;;;15.60
4421;BMP180;11824;51.178;13.546;2023-07-22T01:23:15;99949.00;;;15.60
4421;BMP180;11824;51.178;13.546;2023-07-22T01:25:43;99947.00;;;15.60
4421;BMP180;11824;51.178;13.546;2023-07-22T01:28:11;99955.00;;;15.70
4421;BMP180;11824;51.178;13.546;2023-07-22T01:30:38;99960.00;;;15.70
4421;BMP180;11824;51.178;13.546;2023-07-22T01:33:06;99963.00;;;15.70
4421;BMP180;11824;51.178;13.546;2023-07-22T01:35:34;99959.00;;;15.70
4421;BMP180;11824;51.178;13.546;2023-07-22T01:38:01;99963.00;;;15.70
4421;BMP180;11824;51.178;13.546;2023-07-22T01:40:29;99950.00;;;15.70
4421;BMP180;11824;51.178;13.546;2023-07-22T01:42:58;99959.00;;;15.70
4421;BMP180;11824;51.178;13.546;2023-07-22T01:45:25;99963.00;;;15.70
4421;BMP180;11824;51.178;13.546;2023-07-22T01:47:52;99951.00;;;15.60
4421;BMP180;11824;51.178;13.546;2023-07-22T01:50:20;99955.00;;;15.60
4421;BMP180;11824;51.178;13.546;2023-07-22T01:52:47;99958.00;;;15.60
4421;BMP180;11824;51.178;13.546;2023-07-22T01:55:15;99951.00;;;15.50
4421;BMP180;11824;51.178;13.546;2023-07-22T01:57:43;99971.00;;;15.50
4421;BMP180;11824;51.178;13.546;2023-07-22T02:00:11;99974.00;;;15.40
4421;BMP180;11824;51.178;13.546;2023-07-22T02:02:39;99965.00;;;15.40
4421;BMP180;11824;51.178;13.546;2023-07-22T02:05:07;99967.00;;;15.30
4421;BMP180;11824;51.178;13.546;2023-07-22T02:07:35;99976.00;;;15.30
4421;BMP180;11824;51.178;13.546;2023-07-22T02:10:05;99975.00;;;15.20
4421;BMP180;11824;51.178;13.546;2023-07-22T02:12:32;99982.00;;;15.20
4421;BMP180;11824;51.178;13.546;2023-07-22T02:15:00;99976.00;;;15.20
4421;BMP180;11824;51.178;13.546;2023-07-22T02:17:29;99982.00;;;15.10
4421;BMP180;11824;51.178;13.546;2023-07-22T02:19:57;99988.00;;;15.10
4421;BMP180;11824;51.178;13.546;2023-07-22T02:22:25;99985.00;;;15.10
4421;BMP180;11824;51.178;13.546;2023-07-22T02:24:52;99994.00;;;15.10
4421;BMP180;11824;51.178;13.546;2023-07-22T02:27:20;99994.00;;;15.00
4421;BMP180;11824;51.178;13.546;2023-07-22T02:29:47;100000.00;;;15.00
4421;BMP180;11824;51.178;13.546;2023-07-22T02:32:15;99992.00;;;15.00
4421;BMP180;11824;51.178;13.546;2023-07-22T02:34:43;99991.00;;;14.90
4421;BMP180;11824;51.178;13.546;2023-07-22T02:37:10;99995.00;;;14.90
4421;BMP180;11824;51.178;13.546;2023-07-22T02:39:37;99995.00;;;14.80
4421;BMP180;11824;51.178;13.546;2023-07-22T02:42:05;99997.00;;;14.80
4421;BMP180;11824;51.178;13.546;2023-07-22T02:44:33;99989.00;;;14.70
4421;BMP180;11824;51.178;13.546;2023-07-22T02:47:00;99991.00;;;14.70
4421;BMP180;11824;51.178;13.546;2023-07-22T02:49:28;100003.00;;;14.70
4421;BMP180;11824;51.178;13.546;2023-07-22T02:51:56;99991.00;;;14.70
4421;BMP180;11824;51.178;13.546;2023-07-22T02:54:23;100008.00;;;14.60
4421;BMP180;11824;51.178;13.546;2023-07-22T02:56:50;100000.00;;;14.60
4421;BMP180;11824;51.178;13.546;2023-07-22T02:59:18;100014.00;;;14.60
4421;BMP180;11824;51.178;13.546;2023-07-22T03:01:45;100010.00;;;14.60
4421;BMP180;11824;51.178;13.546;2023-07-22T03:04:13;100021.00;;;14.60
4421;BMP180;11824;51.178;13.546;2023-07-22T03:06:41;100021.00;;;14.60
4421;BMP180;11824;51.178;13.546;2023-07-22T03:09:11;100032.00;;;14.70
4421;BMP180;11824;51.178;13.546;2023-07-22T03:11:38;100028.00;;;14.60
4421;BMP180;11824;51.178;13.546;2023-07-22T03:14:06;100030.00;;;14.60
4421;BMP180;11824;51.178;13.546;2023-07-22T03:16:33;100029.00;;;14.60
4421;BMP180;11824;51.178;13.546;2023-07-22T03:19:00;100031.00;;;14.60
4421;BMP180;11824;51.178;13.546;2023-07-22T03:21:28;100033.00;;;14.60
4421;BMP180;11824;51.178;13.546;2023-07-22T03:23:56;100027.00;;;14.60
4421;BMP180;11824;51.178;13.546;2023-07-22T03:26:24;100030.00;;;14.60
4421;BMP180;11824;51.178;13.546;2023-07-22T03:28:52;100038.00;;;14.60
4421;BMP180;11824;51.178;13.546;2023-07-22T03:31:19;100034.00;;;14.60
4421;BMP180;11824;51.178;13.546;2023-07-22T03:33:46;100039.00;;;14.60
4421;BMP180;11824;51.178;13.546;2023-07-22T03:36:14;100030.00;;;14.70
4421;BMP180;11824;51.178;13.546;2023-07-22T03:38:42;100032.00;;;14.70
4421;BMP180;11824;51.178;13.546;2023-07-22T03:41:10;100037.00;;;14.70
4421;BMP180;11824;51.178;13.546;2023-07-22T03:43:38;100052.00;;;14.80
4421;BMP180;11824;51.178;13.546;2023-07-22T03:46:05;100049.00;;;14.80
4421;BMP180;11824;51.178;13.546;2023-07-22T03:48:33;100047.00;;;14.90
4421;BMP180;11824;51.178;13.546;2023-07-22T03:51:01;100043.00;;;14.90
4421;BMP180;11824;51.178;13.546;2023-07-22T03:53:46;100053.00;;;15.00
4421;BMP180;11824;51.178;13.546;2023-07-22T03:56:14;100047.00;;;15.00
4421;BMP180;11824;51.178;13.546;2023-07-22T03:58:41;100047.00;;;15.10
4421;BMP180;11824;51.178;13.546;2023-07-22T04:01:11;100049.00;;;15.10
4421;BMP180;11824;51.178;13.546;2023-07-22T04:03:38;100046.00;;;15.20
4421;BMP180;11824;51.178;13.546;2023-07-22T04:06:06;100046.00;;;15.20
4421;BMP180;11824;51.178;13.546;2023-07-22T04:08:33;100043.00;;;15.30
4421;BMP180;11824;51.178;13.546;2023-07-22T04:11:01;100037.00;;;15.30
4421;BMP180;11824;51.178;13.546;2023-07-22T04:13:29;100042.00;;;15.40
4421;BMP180;11824;51.178;13.546;2023-07-22T04:15:57;100047.00;;;15.40
4421;BMP180;11824;51.178;13.546;2023-07-22T04:18:24;100050.00;;;15.50
4421;BMP180;11824;51.178;13.546;2023-07-22T04:20:56;100045.00;;;15.50
4421;BMP180;11824;51.178;13.546;2023-07-22T04:23:24;100050.00;;;15.60
4421;BMP180;11824;51.178;13.546;2023-07-22T04:25:52;100054.00;;;15.70
4421;BMP180;11824;51.178;13.546;2023-07-22T04:28:19;100062.00;;;15.70
4421;BMP180;11824;51.178;13.546;2023-07-22T04:30:55;100068.00;;;15.80
4421;BMP180;11824;51.178;13.546;2023-07-22T04:33:24;100068.00;;;15.90
4421;BMP180;11824;51.178;13.546;2023-07-22T04:35:55;100062.00;;;16.00
4421;BMP180;11824;51.178;13.546;2023-07-22T04:38:23;100081.00;;;16.10
4421;BMP180;11824;51.178;13.546;2023-07-22T04:40:50;100079.00;;;16.20
4421;BMP180;11824;51.178;13.546;2023-07-22T04:43:18;100081.00;;;16.40
4421;BMP180;11824;51.178;13.546;2023-07-22T04:45:49;100079.00;;;16.60
4421;BMP180;11824;51.178;13.546;2023-07-22T04:48:18;100087.00;;;17.00
4421;BMP180;11824;51.178;13.546;2023-07-22T04:50:46;100079.00;;;17.50
4421;BMP180;11824;51.178;13.546;2023-07-22T04:53:14;100088.00;;;18.00
4421;BMP180;11824;51.178;13.546;2023-07-22T04:55:41;100088.00;;;18.20
4421;BMP180;11824;51.178;13.546;2023-07-22T04:58:09;100092.00;;;18.30
4421;BMP180;11824;51.178;13.546;2023-07-22T05:00:37;100100.00;;;18.50
4421;BMP180;11824;51.178;13.546;2023-07-22T05:03:06;100096.00;;;18.70
4421;BMP180;11824;51.178;13.546;2023-07-22T05:05:33;100090.00;;;19.00
4421;BMP180;11824;51.178;13.546;2023-07-22T05:08:02;100094.00;;;19.40
4421;BMP180;11824;51.178;13.546;2023-07-22T05:10:30;100093.00;;;19.80
4421;BMP180;11824;51.178;13.546;2023-07-22T05:12:57;100094.00;;;20.40
4421;BMP180;11824;51.178;13.546;2023-07-22T05:15:25;100108.00;;;20.90
4421;BMP180;11824;51.178;13.546;2023-07-22T05:17:52;100106.00;;;21.40
4421;BMP180;11824;51.178;13.546;2023-07-22T05:20:20;100104.00;;;21.90
4421;BMP180;11824;51.178;13.546;2023-07-22T05:22:48;100114.00;;;22.40
4421;BMP180;11824;51.178;13.546;2023-07-22T05:25:16;100112.00;;;22.80
4421;BMP180;11824;51.178;13.546;2023-07-22T05:27:44;100120.00;;;23.40
4421;BMP180;11824;51.178;13.546;2023-07-22T05:30:12;100127.00;;;23.80
4421;BMP180;11824;51.178;13.546;2023-07-22T05:33:00;100124.00;;;24.20
4421;BMP180;11824;51.178;13.546;2023-07-22T05:35:28;100133.00;;;24.50
4421;BMP180;11824;51.178;13.546;2023-07-22T05:37:55;100140.00;;;24.80
4421;BMP180;11824;51.178;13.546;2023-07-22T05:40:22;100137.00;;;25.00
4421;BMP180;11824;51.178;13.546;2023-07-22T05:42:50;100137.00;;;25.00
4421;BMP180;11824;51.178;13.546;2023-07-22T05:45:17;100143.00;;;25.00
4421;BMP180;11824;51.178;13.546;2023-07-22T05:47:45;100135.00;;;25.10
4421;BMP180;11824;51.178;13.546;2023-07-22T05:50:12;100136.00;;;25.30
4421;BMP180;11824;51.178;13.546;2023-07-22T05:52:41;100143.00;;;25.60
4421;BMP180;11824;51.178;13.546;2023-07-22T05:55:08;100143.00;;;25.90
4421;BMP180;11824;51.178;13.546;2023-07-22T05:57:36;100149.00;;;26.30
4421;BMP180;11824;51.178;13.546;2023-07-22T06:00:05;100140.00;;;26.40
4421;BMP180;11824;51.178;13.546;2023-07-22T06:02:35;100155.00;;;26.10
4421;BMP180;11824;51.178;13.546;2023-07-22T06:05:03;100155.00;;;25.90
4421;BMP180;11824;51.178;13.546;2023-07-22T06:07:31;100162.00;;;25.90
4421;BMP180;11824;51.178;13.546;2023-07-22T06:09:59;100159.00;;;25.90
4421;BMP180;11824;51.178;13.546;2023-07-22T06:12:26;100160.00;;;25.90
4421;BMP180;11824;51.178;13.546;2023-07-22T06:14:53;100168.00;;;25.90
4421;BMP180;11824;51.178;13.546;2023-07-22T06:17:21;100173.00;;;26.00
4421;BMP180;11824;51.178;13.546;2023-07-22T06:19:48;100170.00;;;26.20
4421;BMP180;11824;51.178;13.546;2023-07-22T06:22:16;100168.00;;;26.40
4421;BMP180;11824;51.178;13.546;2023-07-22T06:24:43;100166.00;;;26.50
4421;BMP180;11824;51.178;13.546;2023-07-22T06:27:11;100186.00;;;26.80
4421;BMP180;11824;51.178;13.546;2023-07-22T06:29:39;100186.00;;;27.10
4421;BMP180;11824;51.178;13.546;2023-07-22T06:32:07;100190.00;;;27.30
4421;BMP180;11824;51.178;13.546;2023-07-22T06:34:34;100190.00;;;27.30
4421;BMP180;11824;51.178;13.546;2023-07-22T06:37:01;100205.00;;;27.20
4421;BMP180;11824;51.178;13.546;2023-07-22T06:39:29;100191.00;;;27.00
4421;BMP180;11824;51.178;13.546;2023-07-22T06:41:57;100196.00;;;27.10
4421;BMP180;11824;51.178;13.546;2023-07-22T06:44:25;100202.00;;;27.10
4421;BMP180;11824;51.178;13.546;2023-07-22T06:46:52;100199.00;;;27.10
4421;BMP180;11824;51.178;13.546;2023-07-22T06:49:19;100202.00;;;27.20
4421;BMP180;11824;51.178;13.546;2023-07-22T06:51:47;100193.00;;;27.30
4421;BMP180;11824;51.178;13.546;2023-07-22T06:54:14;100197.00;;;27.40
4421;BMP180;11824;51.178;13.546;2023-07-22T06:56:42;100203.00;;;27.20
4421;BMP180;11824;51.178;13.546;2023-07-22T06:59:09;100199.00;;;27.20
4421;BMP180;11824;51.178;13.546;2023-07-22T07:01:37;100200.00;;;27.20
4421;BMP180;11824;51.178;13.546;2023-07-22T07:04:05;100205.00;;;27.10
4421;BMP180;11824;51.178;13.546;2023-07-22T07:06:32;100213.00;;;26.80
4421;BMP180;11824;51.178;13.546;2023-07-22T07:09:00;100206.00;;;26.60
4421;BMP180;11824;51.178;13.546;2023-07-22T07:11:29;100209.00;;;26.30
4421;BMP180;11824;51.178;13.546;2023-07-22T07:13:56;100207.00;;;25.90
4421;BMP180;11824;51.178;13.546;2023-07-22T07:16:25;100211.00;;;25.70
4421;BMP180;11824;51.178;13.546;2023-07-22T07:18:55;100210.00;;;25.60
4421;BMP180;11824;51.178;13.546;2023-07-22T07:21:23;100209.00;;;25.40
4421;BMP180;11824;51.178;13.546;2023-07-22T07:23:51;100208.00;;;25.20
4421;BMP180;11824;51.178;13.546;2023-07-22T07:26:19;100212.00;;;24.90
4421;BMP180;11824;51.178;13.546;2023-07-22T07:28:48;100204.00;;;24.60
4421;BMP180;11824;51.178;13.546;2023-07-22T07:31:15;100216.00;;;24.30
4421;BMP180;11824;51.178;13.546;2023-07-22T07:33:43;100220.00;;;24.10
4421;BMP180;11824;51.178;13.546;2023-07-22T07:36:11;100220.00;;;23.90
4421;BMP180;11824;51.178;13.546;2023-07-22T07:38:38;100237.00;;;23.60
4421;BMP180;11824;51.178;13.546;2023-07-22T07:41:06;100227.00;;;23.30
4421;BMP180;11824;51.178;13.546;2023-07-22T07:43:35;100220.00;;;23.10
4421;BMP180;11824;51.178;13.546;2023-07-22T07:46:16;100228.00;;;23.00
4421;BMP180;11824;51.178;13.546;2023-07-22T07:48:45;100225.00;;;22.90
4421;BMP180;11824;51.178;13.546;2023-07-22T07:51:14;100228.00;;;22.80
4421;BMP180;11824;51.178;13.546;2023-07-22T07:53:42;100231.00;;;22.70
4421;BMP180;11824;51.178;13.546;2023-07-22T07:56:11;100226.00;;;22.60
4421;BMP180;11824;51.178;13.546;2023-07-22T07:58:39;100236.00;;;22.60
4421;BMP180;11824;51.178;13.546;2023-07-22T08:01:07;100236.00;;;22.60
4421;BMP180;11824;51.178;13.546;2023-07-22T08:03:35;100235.00;;;22.60
4421;BMP180;11824;51.178;13.546;2023-07-22T08:06:03;100230.00;;;22.60
4421;BMP180;11824;51.178;13.546;2023-07-22T08:08:31;100238.00;;;22.60
4421;BMP180;11824;51.178;13.546;2023-07-22T08:11:00;100245.00;;;22.60
4421;BMP180;11824;51.178;13.546;2023-07-22T08:13:27;100243.00;;;22.60
4421;BMP180;11824;51.178;13.546;2023-07-22T08:15:56;100245.00;;;22.50
4421;BMP180;11824;51.178;13.546;2023-07-22T08:18:24;100242.00;;;22.60
4421;BMP180;11824;51.178;13.546;2023-07-22T08:20:52;100244.00;;;22.60
4421;BMP180;11824;51.178;13.546;2023-07-22T08:23:20;100247.00;;;22.70
4421;BMP180;11824;51.178;13.546;2023-07-22T08:25:48;100243.00;;;22.70
4421;BMP180;11824;51.178;13.546;2023-07-22T08:28:16;100246.00;;;22.80
4421;BMP180;11824;51.178;13.546;2023-07-22T08:30:44;100244.00;;;22.90
4421;BMP180;11824;51.178;13.546;2023-07-22T08:33:13;100243.00;;;22.90
4421;BMP180;11824;51.178;13.546;2023-07-22T08:35:45;100245.00;;;22.90
4421;BMP180;11824;51.178;13.546;2023-07-22T08:38:14;100251.00;;;22.90
4421;BMP180;11824;51.178;13.546;2023-07-22T08:40:42;100242.00;;;22.80
4421;BMP180;11824;51.178;13.546;2023-07-22T08:43:10;100255.00;;;22.80
4421;BMP180;11824;51.178;13.546;2023-07-22T08:45:39;100250.00;;;22.90
4421;BMP180;11824;51.178;13.546;2023-07-22T08:48:08;100234.00;;;22.90
4421;BMP180;11824;51.178;13.546;2023-07-22T08:50:44;100251.00;;;23.00
4421;BMP180;11824;51.178;13.546;2023-07-22T08:53:13;100246.00;;;23.10
4421;BMP180;11824;51.178;13.546;2023-07-22T08:55:41;100249.00;;;23.10
4421;BMP180;11824;51.178;13.546;2023-07-22T08:58:09;100248.00;;;23.20
4421;BMP180;11824;51.178;13.546;2023-07-22T09:00:37;100249.00;;;23.20
4421;BMP180;11824;51.178;13.546;2023-07-22T09:03:05;100257.00;;;23.30
4421;BMP180;11824;51.178;13.546;2023-07-22T09:05:34;100250.00;;;23.30
4421;BMP180;11824;51.178;13.546;2023-07-22T09:08:04;100253.00;;;23.40
4421;BMP180;11824;51.178;13.546;2023-07-22T09:10:32;100256.00;;;23.40
4421;BMP180;11824;51.178;13.546;2023-07-22T09:13:00;100245.00;;;23.60
4421;BMP180;11824;51.178;13.546;2023-07-22T09:15:29;100245.00;;;23.70
4421;BMP180;11824;51.178;13.546;2023-07-22T09:17:56;100246.00;;;23.70
4421;BMP180;11824;51.178;13.546;2023-07-22T09:20:23;100249.00;;;23.80
4421;BMP180;11824;51.178;13.546;2023-07-22T09:22:53;100246.00;;;23.80
4421;BMP180;11824;51.178;13.546;2023-07-22T09:25:40;100245.00;;;23.80
4421;BMP180;11824;51.178;13.546;2023-07-22T09:28:07;100241.00;;;23.80
4421;BMP180;11824;51.178;13.546;2023-07-22T09:30:37;100238.00;;;23.80
4421;BMP180;11824;51.178;13.546;2023-07-22T09:33:06;100234.00;;;23.80
4421;BMP180;11824;51.178;13.546;2023-07-22T09:35:45;100239.00;;;23.70
4421;BMP180;11824;51.178;13.546;2023-07-22T09:38:12;100240.00;;;23.70
4421;BMP180;11824;51.178;13.546;2023-07-22T09:40:41;100246.00;;;23.60
4421;BMP180;11824;51.178;13.546;2023-07-22T09:43:10;100238.00;;;23.60
4421;BMP180;11824;51.178;13.546;2023-07-22T09:45:39;100232.00;;;23.50
4421;BMP180;11824;51.178;13.546;2023-07-22T09:48:09;100213.00;;;23.50
4421;BMP180;11824;51.178;13.546;2023-07-22T09:50:37;100223.00;;;23.50
4421;BMP180;11824;51.178;13.546;2023-07-22T09:53:05;100232.00;;;23.50
4421;BMP180;11824;51.178;13.546;2023-07-22T09:55:33;100229.00;;;23.50
4421;BMP180;11824;51.178;13.546;2023-07-22T09:58:02;100226.00;;;23.60
4421;BMP180;11824;51.178;13.546;2023-07-22T10:00:31;100215.00;;;23.70
4421;BMP180;11824;51.178;13.546;2023-07-22T10:03:00;100225.00;;;23.70
4421;BMP180;11824;51.178;13.546;2023-07-22T10:05:28;100206.00;;;23.80
4421;BMP180;11824;51.178;13.546;2023-07-22T10:07:57;100215.00;;;23.80
4421;BMP180;11824;51.178;13.546;2023-07-22T10:10:29;100223.00;;;23.80
4421;BMP180;11824;51.178;13.546;2023-07-22T10:12:57;100219.00;;;23.90
4421;BMP180;11824;51.178;13.546;2023-07-22T10:15:27;100220.00;;;23.90
4421;BMP180;11824;51.178;13.546;2023-07-22T10:17:56;100223.00;;;24.00
4421;BMP180;11824;51.178;13.546;2023-07-22T10:20:25;100220.00;;;24.10
4421;BMP180;11824;51.178;13.546;2023-07-22T10:22:52;100211.00;;;24.20
4421;BMP180;11824;51.178;13.546;2023-07-22T10:25:20;100219.00;;;24.40
4421;BMP180;11824;51.178;13.546;2023-07-22T10:27:49;100216.00;;;24.50
4421;BMP180;11824;51.178;13.546;2023-07-22T10:30:18;100223.00;;;24.50
4421;BMP180;11824;51.178;13.546;2023-07-22T10:32:47;100222.00;;;24.40
4421;BMP180;11824;51.178;13.546;2023-07-22T10:35:21;100229.00;;;24.40
4421;BMP180;11824;51.178;13.546;2023-07-22T10:37:53;100224.00;;;24.50
4421;BMP180;11824;51.178;13.546;2023-07-22T10:40:26;100213.00;;;24.50
4421;BMP180;11824;51.178;13.546;2023-07-22T10:42:57;100220.00;;;24.50
4421;BMP180;11824;51.178;13.546;2023-07-22T10:45:29;100234.00;;;24.50
4421;BMP180;11824;51.178;13.546;2023-07-22T10:48:07;100232.00;;;24.50
4421;BMP180;11824;51.178;13.546;2023-07-22T10:50:42;100224.00;;;24.40
4421;BMP180;11824;51.178;13.546;2023-07-22T10:53:19;100232.00;;;24.30
4421;BMP180;11824;51.178;13.546;2023-07-22T10:56:13;100226.00;;;24.30
4421;BMP180;11824;51.178;13.546;2023-07-22T10:58:59;100233.00;;;24.20
4421;BMP180;11824;51.178;13.546;2023-07-22T11:01:35;100227.00;;;24.10
4421;BMP180;11824;51.178;13.546;2023-07-22T11:04:22;100228.00;;;24.10
4421;BMP180;11824;51.178;13.546;2023-07-22T11:07:06;100219.00;;;24.10
4421;BMP180;11824;51.178;13.546;2023-07-22T11:09:36;100215.00;;;24.10
4421;BMP180;11824;51.178;13.546;2023-07-22T11:12:06;100218.00;;;24.20
4421;BMP180;11824;51.178;13.546;2023-07-22T11:14:35;100216.00;;;24.30
4421;BMP180;11824;51.178;13.546;2023-07-22T11:17:05;100217.00;;;24.40
4421;BMP180;11824;51.178;13.546;2023-07-22T11:19:35;100216.00;;;24.40
4421;BMP180;11824;51.178;13.546;2023-07-22T11:22:03;100221.00;;;24.50
4421;BMP180;11824;51.178;13.546;2023-07-22T11:24:31;100221.00;;;24.50
4421;BMP180;11824;51.178;13.546;2023-07-22T11:27:00;100205.00;;;24.50
4421;BMP180;11824;51.178;13.546;2023-07-22T11:29:29;100203.00;;;24.60
4421;BMP180;11824;51.178;13.546;2023-07-22T11:31:57;100199.00;;;24.60
4421;BMP180;11824;51.178;13.546;2023-07-22T11:34:25;100200.00;;;24.60
4421;BMP180;11824;51.178;13.546;2023-07-22T11:36:54;100202.00;;;24.60
4421;BMP180;11824;51.178;13.546;2023-07-22T11:39:23;100210.00;;;24.60
4421;BMP180;11824;51.178;13.546;2023-07-22T11:41:51;100201.00;;;24.60
4421;BMP180;11824;51.178;13.546;2023-07-22T11:44:21;100195.00;;;24.50
4421;BMP180;11824;51.178;13.546;2023-07-22T11:46:53;100198.00;;;24.50
4421;BMP180;11824;51.178;13.546;2023-07-22T11:49:28;100198.00;;;24.50
4421;BMP180;11824;51.178;13.546;2023-07-22T11:51:57;100189.00;;;24.50
4421;BMP180;11824;51.178;13.546;2023-07-22T11:54:24;100192.00;;;24.50
4421;BMP180;11824;51.178;13.546;2023-07-22T11:56:52;100190.00;;;24.60
4421;BMP180;11824;51.178;13.546;2023-07-22T11:59:34;100177.00;;;24.70
4421;BMP180;11824;51.178;13.546;2023-07-22T12:02:02;100178.00;;;24.80
4421;BMP180;11824;51.178;13.546;2023-07-22T12:04:32;100178.00;;;24.90
4421;BMP180;11824;51.178;13.546;2023-07-22T12:07:00;100172.00;;;25.00
4421;BMP180;11824;51.178;13.546;2023-07-22T12:09:28;100184.00;;;25.10
4421;BMP180;11824;51.178;13.546;2023-07-22T12:11:56;100183.00;;;25.20
4421;BMP180;11824;51.178;13.546;2023-07-22T12:14:24;100181.00;;;25.30
4421;BMP180;11824;51.178;13.546;2023-07-22T12:16:56;100176.00;;;25.40
4421;BMP180;11824;51.178;13.546;2023-07-22T12:19:25;100180.00;;;25.60
4421;BMP180;11824;51.178;13.546;2023-07-22T12:21:54;100180.00;;;25.70
4421;BMP180;11824;51.178;13.546;2023-07-22T12:24:21;100179.00;;;25.80
4421;BMP180;11824;51.178;13.546;2023-07-22T12:26:49;100179.00;;;25.90
4421;BMP180;11824;51.178;13.546;2023-07-22T12:29:16;100184.00;;;26.00
4421;BMP180;11824;51.178;13.546;2023-07-22T12:31:43;100184.00;;;26.10
4421;BMP180;11824;51.178;13.546;2023-07-22T12:34:12;100175.00;;;26.10
4421;BMP180;11824;51.178;13.546;2023-07-22T12:36:39;100182.00;;;26.20
4421;BMP180;11824;51.178;13.546;2023-07-22T12:39:07;100178.00;;;26.20
4421;BMP180;11824;51.178;13.546;2023-07-22T12:41:34;100172.00;;;26.20
4421;BMP180;11824;51.178;13.546;2023-07-22T12:44:02;100175.00;;;26.20
4421;BMP180;11824;51.178;13.546;2023-07-22T12:46:30;100177.00;;;26.20
4421;BMP180;11824;51.178;13.546;2023-07-22T12:48:57;100172.00;;;26.30
4421;BMP180;11824;51.178;13.546;2023-07-22T12:51:25;100173.00;;;26.30
4421;BMP180;11824;51.178;13.546;2023-07-22T12:53:53;100170.00;;;26.50
4421;BMP180;11824;51.178;13.546;2023-07-22T12:56:21;100169.00;;;26.60
4421;BMP180;11824;51.178;13.546;2023-07-22T12:58:48;100166.00;;;26.80
4421;BMP180;11824;51.178;13.546;2023-07-22T13:01:16;100165.00;;;26.90
4421;BMP180;11824;51.178;13.546;2023-07-22T13:03:43;100165.00;;;27.00
4421;BMP180;11824;51.178;13.546;2023-07-22T13:06:11;100159.00;;;27.00
4421;BMP180;11824;51.178;13.546;2023-07-22T13:08:39;100167.00;;;27.00
4421;BMP180;11824;51.178;13.546;2023-07-22T13:11:07;100162.00;;;27.00
4421;BMP180;11824;51.178;13.546;2023-07-22T13:13:34;100168.00;;;27.00
4421;BMP180;11824;51.178;13.546;2023-07-22T13:16:02;100162.00;;;27.00
4421;BMP180;11824;51.178;13.546;2023-07-22T13:18:29;100163.00;;;27.00
4421;BMP180;11824;51.178;13.546;2023-07-22T13:20:57;100159.00;;;27.00
4421;BMP180;11824;51.178;13.546;2023-07-22T13:23:24;100160.00;;;27.00
4421;BMP180;11824;51.178;13.546;2023-07-22T13:25:52;100154.00;;;27.00
4421;BMP180;11824;51.178;13.546;2023-07-22T13:28:19;100148.00;;;27.00
4421;BMP180;11824;51.178;13.546;2023-07-22T13:30:47;100151.00;;;26.90
4421;BMP180;11824;51.178;13.546;2023-07-22T13:33:14;100145.00;;;26.90
4421;BMP180;11824;51.178;13.546;2023-07-22T13:35:42;100135.00;;;27.00
4421;BMP180;11824;51.178;13.546;2023-07-22T13:38:09;100143.00;;;27.10
4421;BMP180;11824;51.178;13.546;2023-07-22T13:40:37;100139.00;;;27.20
4421;BMP180;11824;51.178;13.546;2023-07-22T13:43:05;100141.00;;;27.20
4421;BMP180;11824;51.178;13.546;2023-07-22T13:45:33;100129.00;;;27.20
4421;BMP180;11824;51.178;13.546;2023-07-22T13:48:00;100137.00;;;27.20
4421;BMP180;11824;51.178;13.546;2023-07-22T13:50:28;100132.00;;;27.30
4421;BMP180;11824;51.178;13.546;2023-07-22T13:52:55;100129.00;;;27.20
4421;BMP180;11824;51.178;13.546;2023-07-22T13:55:23;100130.00;;;27.20
4421;BMP180;11824;51.178;13.546;2023-07-22T13:57:50;100127.00;;;27.10
4421;BMP180;11824;51.178;13.546;2023-07-22T14:00:19;100133.00;;;27.00
4421;BMP180;11824;51.178;13.546;2023-07-22T14:02:47;100135.00;;;26.90
4421;BMP180;11824;51.178;13.546;2023-07-22T14:05:14;100126.00;;;26.80
4421;BMP180;11824;51.178;13.546;2023-07-22T14:07:42;100114.00;;;26.80